Donets'k, Ukraine
Current Conditions -  °F | °C
As of 11:30 AM on Friday 28 Nov 2014 (Local Time) from URRR Reporting Station
Overcast Overcast  
Wind Chill: 18°   Ceiling: 1300
Heat Index: 28°   Visibility: 6mi
Dew Point: 25°   Wind: 13mph
Humidity: 86%   Direction: 90°E
Pressure: 30.36"   Gusts: NA
Location:  48.07°N, 37.77°E
Report Text: URRR 280830Z 09006MPS 9999 BKN013 OVC100 M02/M04 Q1028 04810060NOSIG
Loading
Personal Weather Stations






























Interactive Weather Map New forecast layout! Learn more

10-Day Weather Forecast

Advertisements
Track Severe Weather on mobile